Time;durP1;ratioP1;P1;durP2;ratioP2;P2;SDS_P1;SDS_P2;PMS_P1;PMS_P2;Temp;Humidity;BMP_temperature;BMP_pressure;BME280_temperature;BME280_humidity;BME280_pressure;Samples;Min_cycle;Max_cycle;Signal;HPM_P1;HPM_P2
2024/02/23 00:02:02;;;;;;;5.25;3.03;;;;;;;11.44;94.30;97881.00;4863921;29;20045;-96
2024/02/23 00:04:36;;;;;;;5.20;2.65;;;;;;;11.53;93.94;97885.06;4866233;29;20065;-90
2024/02/23 00:07:09;;;;;;;7.45;2.22;;;;;;;11.54;93.45;97883.25;4864097;29;20065;-91
2024/02/23 00:09:45;;;;;;;5.63;2.35;;;;;;;11.07;93.19;97805.47;4868982;29;20038;-92
2024/02/23 00:12:16;;;;;;;7.53;2.53;;;;;;;11.10;91.98;97786.72;4864863;29;20045;-93
2024/02/23 00:14:42;;;;;;;6.07;2.47;;;;;;;11.48;92.94;97848.00;4865580;29;20112;-94
2024/02/23 00:17:19;;;;;;;6.47;2.47;;;;;;;11.40;93.10;97846.59;4861000;29;20049;-94
2024/02/23 00:19:45;;;;;;;;;;;;;;;11.41;92.92;97832.38;4860269;29;20056;-93
2024/02/23 00:22:30;;;;;;;6.15;1.90;;;;;;;10.96;92.34;97751.88;4857907;29;19924;-95
2024/02/23 00:25:05;;;;;;;7.47;2.08;;;;;;;11.41;91.82;97821.72;4855788;29;20400;-93
2024/02/23 00:27:51;;;;;;;5.10;2.05;;;;;;;11.00;90.94;97721.56;4888804;29;20048;-94
2024/02/23 00:30:17;;;;;;;6.88;2.45;;;;;;;11.27;90.17;97763.78;4884051;29;20049;-94
2024/02/23 00:32:43;;;;;;;4.70;2.10;;;;;;;11.45;90.86;97802.00;4889544;29;20045;-95
2024/02/23 00:38:07;;;;;;;3.15;1.63;;;;;;;11.26;89.65;97746.09;4950114;23;20079;-96
2024/02/23 00:40:43;;;;;;;7.30;1.90;;;;;;;11.40;89.64;97790.72;4889688;29;20049;-95
2024/02/23 00:43:19;;;;;;;4.85;2.22;;;;;;;11.61;88.94;97823.47;4888475;29;20053;-93
2024/02/23 00:45:50;;;;;;;5.95;1.80;;;;;;;11.34;88.46;97783.00;4886128;29;20073;-95
2024/02/23 00:48:19;;;;;;;6.30;2.00;;;;;;;11.53;89.33;97815.81;4886184;29;20041;-94
2024/02/23 00:50:55;;;;;;;5.80;2.15;;;;;;;11.56;88.40;97814.81;4886289;29;20045;-95
2024/02/23 00:53:41;;;;;;;3.08;1.90;;;;;;;11.58;88.47;97818.28;4888957;29;20044;-94
2024/02/23 00:56:15;;;;;;;5.28;2.08;;;;;;;11.62;88.49;97812.72;4888151;29;20052;-92
2024/02/23 00:58:52;;;;;;;3.55;1.92;;;;;;;11.37;87.91;97761.59;4888121;29;20132;-94
2024/02/23 01:01:40;;;;;;;4.85;1.70;;;;;;;11.67;88.14;97810.72;4885164;29;20049;-95
2024/02/23 01:04:09;;;;;;;3.53;1.48;;;;;;;11.63;88.68;97805.63;4888904;29;20045;-92
2024/02/23 01:06:42;;;;;;;5.80;1.88;;;;;;;11.13;89.28;97732.50;4894736;29;20042;-94
2024/02/23 01:09:08;;;;;;;3.55;1.80;;;;;;;11.63;88.94;97803.81;4891968;29;20045;-92
2024/02/23 01:11:34;;;;;;;6.22;2.67;;;;;;;11.61;89.52;97811.00;4890539;29;20061;-94
2024/02/23 01:14:06;;;;;;;6.72;2.22;;;;;;;11.40;89.14;97762.28;4886548;29;20045;-95
2024/02/23 01:16:37;;;;;;;5.05;2.00;;;;;;;11.22;88.52;97731.22;4882440;29;20042;-95
2024/02/23 01:19:09;;;;;;;5.28;1.77;;;;;;;11.42;88.46;97746.25;4885809;29;20053;-94
2024/02/23 01:21:43;;;;;;;4.18;1.67;;;;;;;11.72;88.38;97781.22;4886004;29;20082;-95
2024/02/23 01:24:13;;;;;;;4.00;1.83;;;;;;;11.14;88.46;97712.94;4887844;29;20048;-94
2024/02/23 01:26:41;;;;;;;5.10;2.45;;;;;;;11.17;89.40;97723.44;4890264;29;20065;-94
2024/02/23 01:29:16;;;;;;;5.68;1.70;;;;;;;11.57;88.95;97772.16;4900104;29;20033;-92
2024/02/23 01:34:40;;;;;;;4.50;2.25;;;;;;;11.54;89.31;97742.13;4903167;29;20052;-95
2024/02/23 01:37:06;;;;;;;3.92;1.98;;;;;;;11.35;88.75;97694.25;4888290;29;20053;-95
2024/02/23 01:39:35;;;;;;;5.00;1.88;;;;;;;11.57;89.29;97740.19;4861147;29;20057;-94
2024/02/23 01:42:01;;;;;;;4.97;2.20;;;;;;;11.38;88.87;97694.09;4863763;29;20124;-94
2024/02/23 01:44:29;;;;;;;4.25;1.77;;;;;;;11.18;89.51;97665.75;4869142;29;20417;-94
2024/02/23 01:47:01;;;;;;;3.13;1.73;;;;;;;11.50;89.62;97723.66;4871272;29;20166;-94
2024/02/23 01:49:33;;;;;;;2.97;1.80;;;;;;;11.38;88.96;97702.06;4860090;29;20128;-95
2024/02/23 01:52:12;;;;;;;3.25;1.90;;;;;;;11.25;89.19;97676.03;4857217;29;20051;-94
2024/02/23 01:55:00;;;;;;;2.88;1.80;;;;;;;11.16;89.20;97651.66;4857687;29;20042;-94
2024/02/23 01:57:29;;;;;;;4.43;2.60;;;;;;;11.31;88.90;97649.13;4858895;29;20057;-92
2024/02/23 01:59:57;;;;;;;3.25;1.67;;;;;;;11.46;89.47;97684.78;4862465;29;20046;-94
2024/02/23 02:02:32;;;;;;;6.72;1.95;;;;;;;11.67;89.20;97704.22;4857227;29;20041;-96
2024/02/23 02:05:03;;;;;;;3.55;1.95;;;;;;;11.21;89.07;97621.25;4862165;29;20045;-93
2024/02/23 02:07:35;;;;;;;8.20;2.20;;;;;;;11.67;89.54;97684.72;4857782;29;20110;-96
2024/02/23 02:10:16;;;;;;;3.35;1.65;;;;;;;11.18;89.84;97624.03;4852455;29;20038;-95
2024/02/23 02:12:45;;;;;;;4.35;1.80;;;;;;;11.63;89.97;97677.81;4871277;29;20074;-94
2024/02/23 02:15:13;;;;;;;2.90;1.52;;;;;;;11.68;89.47;97679.28;4861971;29;20064;-94
2024/02/23 02:17:42;;;;;;;5.07;1.98;;;;;;;11.17;89.61;97594.84;4860064;29;20053;-95
2024/02/23 02:20:13;;;;;;;3.30;1.63;;;;;;;11.08;90.09;97601.47;4868780;29;20057;-95
2024/02/23 02:22:41;;;;;;;4.60;2.20;;;;;;;11.47;90.25;97649.28;4859198;29;20060;-95
2024/02/23 02:25:08;;;;;;;9.20;2.10;;;;;;;11.57;90.27;97665.66;4860500;29;20053;-94
2024/02/23 02:27:40;;;;;;;8.38;2.33;;;;;;;11.58;90.14;97669.16;4855876;29;20061;-96
2024/02/23 02:30:10;;;;;;;3.75;1.85;;;;;;;11.22;91.09;97625.63;4857719;29;20093;-92
2024/02/23 02:32:47;;;;;;;4.88;2.05;;;;;;;11.02;91.23;97599.97;4859814;29;20481;-95
2024/02/23 02:35:13;;;;;;;8.50;1.88;;;;;;;11.02;91.28;97599.97;4858254;29;20050;-94
2024/02/23 02:37:43;;;;;;;5.43;1.92;;;;;;;11.50;91.27;97661.56;4871676;29;20424;-93
2024/02/23 02:40:12;;;;;;;5.28;1.70;;;;;;;11.39;90.99;97650.59;4884259;29;20850;-93
2024/02/23 02:42:50;;;;;;;4.97;1.90;;;;;;;11.41;91.18;97685.97;4885616;29;20869;-94
2024/02/23 02:45:19;;;;;;;6.15;1.80;;;;;;;11.13;90.88;97631.41;4877531;29;20145;-94
2024/02/23 02:47:47;;;;;;;6.97;2.42;;;;;;;11.38;90.37;97678.13;4884589;29;20097;-92
2024/02/23 02:50:17;;;;;;;3.95;1.85;;;;;;;11.43;89.58;97676.97;4884395;29;20502;-95
2024/02/23 02:52:48;;;;;;;5.95;2.20;;;;;;;10.99;88.79;97601.91;4878187;29;20049;-95
2024/02/23 02:55:24;;;;;;;2.60;1.83;;;;;;;11.44;88.61;97656.53;4884318;29;20041;-95
2024/02/23 02:57:58;;;;;;;3.33;1.83;;;;;;;11.00;88.39;97598.34;4883897;29;20053;-95
2024/02/23 03:00:26;;;;;;;8.77;2.13;;;;;;;11.02;88.48;97589.34;4884617;29;20045;-95
2024/02/23 03:02:58;;;;;;;5.78;1.85;;;;;;;11.39;88.59;97671.88;4885156;29;20051;-95
2024/02/23 03:05:33;;;;;;;4.53;1.98;;;;;;;10.98;88.18;97593.06;4882932;29;20045;-94
2024/02/23 03:08:19;;;;;;;2.75;1.80;;;;;;;11.35;88.18;97657.84;4884772;29;20059;-91
2024/02/23 03:10:48;;;;;;;4.30;1.85;;;;;;;11.21;87.86;97642.53;4880446;29;20052;-96
2024/02/23 03:13:16;;;;;;;5.38;2.28;;;;;;;11.19;88.09;97625.78;4884742;29;20041;-96
2024/02/23 03:15:49;;;;;;;6.05;2.22;;;;;;;11.34;87.88;97641.94;4879312;29;20105;-93
2024/02/23 03:18:31;;;;;;;3.90;1.75;;;;;;;10.67;88.10;97554.66;4884262;29;20041;-94
2024/02/23 03:21:09;;;;;;;4.82;1.70;;;;;;;11.16;87.64;97622.41;4883652;29;20064;-96
2024/02/23 03:23:39;;;;;;;2.38;1.48;;;;;;;10.81;87.57;97572.59;4882868;29;20049;-94
2024/02/23 03:26:12;;;;;;;4.20;2.00;;;;;;;10.83;87.98;97583.16;4884116;29;20056;-96
2024/02/23 03:28:43;;;;;;;3.70;2.05;;;;;;;10.93;86.99;97578.25;4882338;29;20057;-95
2024/02/23 03:31:13;;;;;;;5.10;1.75;;;;;;;10.92;87.16;97558.78;4880717;29;20060;-93
2024/02/23 03:33:46;;;;;;;4.63;1.85;;;;;;;11.30;87.46;97662.53;4883748;29;20045;-94
2024/02/23 03:36:18;;;;;;;4.07;1.90;;;;;;;11.43;86.66;97661.00;4880424;29;20072;-95
2024/02/23 03:38:49;;;;;;;5.82;1.98;;;;;;;10.93;86.40;97591.56;4875777;29;20115;-94
2024/02/23 03:41:49;;;;;;;4.20;1.83;;;;;;;11.14;86.12;97614.47;4875727;29;20496;-94
2024/02/23 03:44:18;;;;;;;2.88;1.67;;;;;;;10.97;86.71;97582.50;4872436;29;20124;-93
2024/02/23 03:46:47;;;;;;;3.22;1.90;;;;;;;11.44;86.66;97659.19;4863878;29;20502;-95
2024/02/23 03:49:36;;;;;;;7.97;2.05;;;;;;;11.16;86.38;97620.59;4882258;29;20048;-94
2024/02/23 03:52:09;;;;;;;5.05;2.38;;;;;;;10.95;86.38;97587.91;4879664;29;20049;-95
2024/02/23 03:54:38;;;;;;;4.00;2.00;;;;;;;11.42;86.66;97669.91;4887580;29;20076;-94
2024/02/23 03:57:18;;;;;;;8.07;2.25;;;;;;;11.02;86.55;97599.13;4870933;29;20173;-95
2024/02/23 03:59:53;;;;;;;7.20;2.38;;;;;;;11.49;86.80;97676.69;4876349;29;20056;-96
2024/02/23 04:02:35;;;;;;;6.05;2.05;;;;;;;11.03;86.53;97619.47;4888627;29;20061;-95
2024/02/23 04:05:05;;;;;;;5.97;2.42;;;;;;;11.07;85.89;97583.78;4877216;29;20044;-94
2024/02/23 04:07:52;;;;;;;;;;;;;;;;;;;;;
2024/02/23 04:10:59;;;;;;;12.77;2.85;;;;;;;11.02;86.05;97589.34;4879870;29;20041;-95
2024/02/23 04:13:28;;;;;;;;;;;;;;;11.47;86.07;97653.72;4892033;29;20037;-96
2024/02/23 04:15:57;;;;;;;5.28;2.28;;;;;;;11.26;85.73;97613.91;4879980;29;20388;-93
2024/02/23 04:18:29;;;;;;;7.60;2.17;;;;;;;11.47;85.97;97659.03;4886763;29;20100;-94
2024/02/23 04:21:03;;;;;;;5.93;2.75;;;;;;;11.43;85.44;97645.03;4885069;29;20048;-96
2024/02/23 04:23:32;;;;;;;3.40;1.73;;;;;;;11.46;85.59;97662.66;4880029;29;20072;-95
2024/02/23 04:26:22;;;;;;;6.22;2.40;;;;;;;11.08;85.12;97582.84;4873453;29;20051;-96
2024/02/23 04:28:52;;;;;;;5.57;1.70;;;;;;;11.48;85.22;97658.97;4875320;29;20037;-95
2024/02/23 04:31:18;;;;;;;6.53;2.15;;;;;;;11.00;85.01;97577.06;4874908;29;20523;-94
2024/02/23 04:33:44;;;;;;;5.25;1.83;;;;;;;11.49;84.88;97658.03;4874523;29;20037;-94
2024/02/23 04:36:19;;;;;;;3.63;2.00;;;;;;;11.35;85.14;97635.69;4875682;29;20041;-96
2024/02/23 04:38:53;;;;;;;6.65;2.03;;;;;;;11.44;85.30;97653.88;4871011;29;20049;-95
2024/02/23 04:42:00;;;;;;;5.25;1.55;;;;;;;11.43;85.01;97652.16;4891803;29;20136;-95
2024/02/23 04:44:29;;;;;;;4.30;2.20;;;;;;;11.37;84.54;97650.66;4877155;29;20127;-94
2024/02/23 04:47:18;;;;;;;4.03;1.80;;;;;;;11.23;83.81;97610.50;4884143;29;20065;-95
2024/02/23 04:49:54;;;;;;;6.82;2.40;;;;;;;10.97;83.81;97564.75;4883720;29;20057;-95
2024/02/23 04:52:43;;;;;;;6.50;1.73;;;;;;;11.07;83.11;97547.41;4875295;29;20057;-96
2024/02/23 04:55:16;;;;;;;7.05;2.30;;;;;;;11.05;82.56;97545.75;4879090;29;20060;-94
2024/02/23 04:58:06;;;;;;;5.80;1.92;;;;;;;11.17;82.25;97537.19;4874444;29;20049;-95
2024/02/23 05:00:33;;;;;;;14.57;2.38;;;;;;;11.60;82.24;97609.59;4867267;29;20055;-95
2024/02/23 05:03:08;;;;;;;3.90;1.88;;;;;;;11.11;85.22;97526.84;4874102;29;20131;-94
2024/02/23 05:05:42;;;;;;;3.33;1.88;;;;;;;10.97;86.87;97531.97;4880283;29;20313;-93
2024/02/23 05:08:46;;;;;;;3.13;1.85;;;;;;;10.89;89.22;97527.03;4876608;29;20065;-95
2024/02/23 05:11:36;;;;;;;6.85;2.45;;;;;;;11.09;89.61;97576.59;4879056;29;20044;-95
2024/02/23 05:14:02;;;;;;;4.50;1.92;;;;;;;11.33;89.98;97617.13;4865531;29;20068;-93
2024/02/23 05:16:40;;;;;;;4.75;2.20;;;;;;;10.89;90.19;97538.53;4870569;29;20049;-95
2024/02/23 05:19:07;;;;;;;6.32;1.58;;;;;;;11.17;90.66;97586.84;4874356;29;20053;-96
2024/02/23 05:21:52;;;;;;;;;;;;;;;;;;;;;
2024/02/23 05:24:39;;;;;;;4.60;2.10;;;;;;;10.80;90.92;97536.31;4888227;29;20044;-95
2024/02/23 05:27:45;;;;;;;5.35;2.22;;;;;;;10.99;92.21;97575.31;4866344;29;20073;-95
2024/02/23 05:30:37;;;;;;;;;;;;;;;;;;;;;
2024/02/23 05:33:20;;;;;;;4.55;2.13;;;;;;;10.86;90.59;97533.38;4879603;29;20049;-95
2024/02/23 05:36:25;;;;;;;3.28;2.30;;;;;;;10.88;90.19;97530.59;4878560;29;20053;-95
2024/02/23 05:38:58;;;;;;;4.25;2.20;;;;;;;11.33;90.45;97590.50;4861178;29;20069;-95
2024/02/23 05:44:53;;;;;;;4.93;1.90;;;;;;;11.21;90.04;97557.41;4859068;29;20037;-96
2024/02/23 05:47:45;;;;;;;7.43;1.95;;;;;;;11.24;91.38;97557.22;4860411;29;20116;-95
2024/02/23 05:50:22;;;;;;;6.55;2.45;;;;;;;11.24;93.14;97578.50;4858449;29;20057;-96
2024/02/23 05:52:52;;;;;;;3.83;2.20;;;;;;;10.85;92.49;97515.66;4852844;29;20056;-96
2024/02/23 05:55:24;;;;;;;4.10;2.30;;;;;;;11.09;91.15;97550.84;4858956;29;20907;-96
2024/02/23 05:57:51;;;;;;;4.18;1.95;;;;;;;11.30;91.83;97583.53;4853061;29;20136;-96
2024/02/23 06:00:51;;;;;;;3.50;2.33;;;;;;;11.36;91.50;97593.00;4854631;29;20045;-94
2024/02/23 06:03:20;;;;;;;7.78;2.13;;;;;;;11.31;92.55;97584.41;4852907;29;20057;-96
2024/02/23 06:05:54;;;;;;;4.00;1.85;;;;;;;11.05;93.10;97551.09;4863157;29;20109;-95
2024/02/23 06:08:42;;;;;;;5.88;2.40;;;;;;;11.26;93.24;97589.94;4863885;29;20049;-96
2024/02/23 06:11:14;;;;;;;7.00;2.85;;;;;;;11.19;94.38;97599.19;4846872;29;20056;-95
2024/02/23 06:13:45;;;;;;;4.78;2.63;;;;;;;10.81;95.65;97531.84;4852704;29;20045;-94
2024/02/23 06:16:22;;;;;;;6.85;2.60;;;;;;;11.12;95.51;97547.19;4851897;29;20105;-95
2024/02/23 06:18:53;;;;;;;7.28;2.28;;;;;;;11.40;94.77;97580.41;4847975;29;20057;-95
2024/02/23 06:21:33;;;;;;;8.25;3.08;;;;;;;10.77;96.06;97516.97;4869724;29;20050;-94
2024/02/23 06:24:08;;;;;;;5.32;2.65;;;;;;;11.07;96.55;97530.59;4860694;29;20065;-96
2024/02/23 06:26:37;;;;;;;8.02;3.20;;;;;;;11.19;97.51;97545.06;4854611;29;20048;-94
2024/02/23 06:29:05;;;;;;;5.40;2.78;;;;;;;11.28;99.79;97580.09;4852932;29;20486;-94
2024/02/23 06:31:48;;;;;;;6.68;3.00;;;;;;;11.07;100.00;97554.53;4857586;29;20097;-93
2024/02/23 06:34:21;;;;;;;7.03;2.70;;;;;;;11.25;100.00;97585.53;4860551;29;20493;-92
2024/02/23 06:36:58;;;;;;;6.65;3.30;;;;;;;11.37;100.00;97581.44;4866326;29;20060;-90
2024/02/23 06:39:29;;;;;;;6.65;2.90;;;;;;;10.89;100.00;97498.63;4864588;29;20076;-94
2024/02/23 06:42:04;;;;;;;9.82;4.15;;;;;;;11.48;100.00;97573.78;4871071;29;20041;-94
2024/02/23 06:44:33;;;;;;;8.82;3.20;;;;;;;11.34;100.00;97573.59;4862521;29;20048;-96
2024/02/23 06:47:10;;;;;;;7.75;2.63;;;;;;;11.24;100.00;97525.28;4856879;29;20046;-93
2024/02/23 06:50:00;;;;;;;6.70;2.95;;;;;;;10.97;100.00;97492.91;4866588;29;20049;-94
2024/02/23 06:52:32;;;;;;;5.75;2.80;;;;;;;11.43;100.00;97562.50;4855825;29;20049;-94
2024/02/23 06:55:04;;;;;;;6.93;2.80;;;;;;;11.29;100.00;97555.19;4870032;29;20054;-95
2024/02/23 06:57:36;;;;;;;9.10;3.63;;;;;;;10.95;100.00;97485.97;4868090;29;20060;-94
2024/02/23 07:00:09;;;;;;;5.30;3.05;;;;;;;11.54;100.00;97564.63;4869909;29;20037;-94
2024/02/23 07:02:37;;;;;;;9.40;4.95;;;;;;;11.60;100.00;97556.34;4873087;29;20060;-93
2024/02/23 07:05:13;;;;;;;6.93;4.63;;;;;;;11.34;100.00;97511.53;4880310;29;20035;-95
2024/02/23 07:07:47;;;;;;;10.13;3.30;;;;;;;11.68;100.00;97538.16;4874732;29;20042;-92
2024/02/23 07:10:20;;;;;;;9.75;3.90;;;;;;;11.60;100.00;97550.13;4882108;29;20049;-94
2024/02/23 07:12:46;;;;;;;7.70;3.30;;;;;;;11.60;100.00;97535.03;4875112;29;20052;-95
2024/02/23 07:15:15;;;;;;;7.13;3.42;;;;;;;11.55;100.00;97526.41;4865657;29;20136;-96
2024/02/23 07:17:48;;;;;;;11.60;3.95;;;;;;;11.16;100.00;97466.28;4856667;29;20114;-95
2024/02/23 07:20:33;;;;;;;6.10;3.63;;;;;;;11.18;100.00;97463.53;4859301;29;20064;-95
2024/02/23 07:23:01;;;;;;;;;;;;;;;11.60;100.00;97527.06;4857631;29;20045;-94
2024/02/23 07:25:35;;;;;;;7.45;3.72;;;;;;;11.42;100.00;97472.06;4865732;29;19972;-96
2024/02/23 07:28:24;;;;;;;8.10;3.88;;;;;;;11.66;100.00;97509.88;4849318;29;20045;-94
2024/02/23 07:30:57;;;;;;;10.32;3.83;;;;;;;11.55;100.00;97451.00;4868851;29;20073;-95
2024/02/23 07:33:41;;;;;;;8.38;3.70;;;;;;;11.71;100.00;97486.56;4862878;29;20498;-96
2024/02/23 07:36:31;;;;;;;6.25;3.05;;;;;;;11.81;100.00;97457.63;4870114;29;20056;-95
2024/02/23 07:39:18;;;;;;;8.02;3.58;;;;;;;12.04;100.00;97483.09;4880259;29;20045;-94
2024/02/23 07:41:46;;;;;;;9.27;3.38;;;;;;;11.63;100.00;97400.88;4889703;29;20073;-96
2024/02/23 07:44:29;;;;;;;10.55;3.30;;;;;;;11.95;100.00;97473.78;4886988;29;20044;-94
2024/02/23 07:46:58;;;;;;;7.22;3.00;;;;;;;12.06;100.00;97482.06;4872477;29;20052;-93
2024/02/23 07:49:42;;;;;;;8.82;3.60;;;;;;;11.70;100.00;97412.91;4869283;29;20048;-95
2024/02/23 07:52:14;;;;;;;5.85;3.13;;;;;;;11.76;100.00;97395.78;4878009;29;20068;-96
2024/02/23 07:54:44;;;;;;;7.57;3.13;;;;;;;12.30;100.00;97468.34;4876972;29;20080;-94
2024/02/23 07:57:16;;;;;;;8.30;3.42;;;;;;;12.47;100.00;97492.28;4878518;29;20052;-94
2024/02/23 07:59:51;;;;;;;15.80;3.63;;;;;;;12.50;100.00;97483.22;4877613;29;20147;-96
2024/02/23 08:02:24;;;;;;;7.72;3.20;;;;;;;12.64;98.86;97455.78;4874061;29;20049;-96
2024/02/23 08:05:03;;;;;;;7.60;3.42;;;;;;;12.30;100.00;97385.72;4888295;29;20040;-96
2024/02/23 08:07:32;;;;;;;6.13;3.20;;;;;;;12.79;99.36;97459.41;4884497;29;20492;-94
2024/02/23 08:09:58;;;;;;;10.30;3.35;;;;;;;12.92;97.69;97458.63;4856388;29;20117;-94
2024/02/23 08:12:24;;;;;;;6.57;3.35;;;;;;;12.87;96.42;97425.13;4865464;29;20072;-96
2024/02/23 08:14:53;;;;;;;5.72;3.22;;;;;;;13.19;96.18;97455.28;4875620;29;20045;-95
2024/02/23 08:17:37;;;;;;;4.90;3.15;;;;;;;13.09;95.26;97438.94;4883513;29;20144;-94
2024/02/23 08:20:49;;;;;;;;;;;;;;;;;;;;;
2024/02/23 08:23:38;;;;;;;7.10;3.80;;;;;;;12.94;95.43;97398.00;4884530;29;20049;-94
2024/02/23 08:26:26;;;;;;;10.88;3.83;;;;;;;12.98;94.40;97395.16;4880455;29;20052;-95
2024/02/23 08:29:18;;;;;;;8.27;3.00;;;;;;;13.49;92.81;97447.31;4898934;29;20489;-95
2024/02/23 08:31:56;;;;;;;6.82;3.50;;;;;;;13.62;92.54;97442.09;4874778;29;20044;-94
2024/02/23 08:34:25;;;;;;;8.65;3.25;;;;;;;13.54;92.92;97421.16;4876387;29;20132;-94
2024/02/23 08:37:04;;;;;;;12.98;3.90;;;;;;;13.80;91.79;97431.22;4873903;29;20095;-92
2024/02/23 08:39:35;;;;;;;10.15;4.18;;;;;;;13.58;91.76;97387.13;4875180;29;20144;-96
2024/02/23 08:42:23;;;;;;;7.30;3.97;;;;;;;13.49;92.38;97377.03;4890071;29;20105;-94
2024/02/23 08:45:28;;;;;;;7.40;3.05;;;;;;;13.72;92.30;97413.84;4875869;29;20033;-96
2024/02/23 08:48:18;;;;;;;13.68;4.55;;;;;;;13.66;91.45;97386.63;4892144;29;20052;-96
2024/02/23 08:55:05;;;;;;;11.52;3.95;;;;;;;13.55;90.64;97357.91;4857450;29;20053;-96
2024/02/23 08:58:15;;;;;;;12.57;4.00;;;;;;;14.00;91.03;97412.13;4896325;29;20132;-96
2024/02/23 09:01:14;;;;;;;11.18;3.75;;;;;;;13.54;89.53;97327.69;4880613;29;20608;-94
2024/02/23 09:04:38;;;;;;;11.60;3.90;;;;;;;14.12;90.31;97392.66;4867539;29;20052;-94
2024/02/23 09:20:13;;;;;;;9.20;3.70;;;;;;;14.17;89.37;97406.56;4796286;30;20536;-93
2024/02/23 09:26:47;;;;;;;17.13;3.80;;;;;;;13.73;89.94;97339.91;4773631;30;20051;-94
2024/02/23 09:29:18;;;;;;;14.30;3.90;;;;;;;13.67;89.44;97348.31;4793805;30;20044;-93
2024/02/23 09:32:00;;;;;;;12.60;3.90;;;;;;;13.86;90.06;97401.47;4777984;30;20150;-94
2024/02/23 09:34:50;;;;;;;10.13;4.53;;;;;;;13.55;90.07;97328.53;4776454;30;20068;-95
2024/02/23 09:37:37;;;;;;;11.32;4.20;;;;;;;13.65;90.42;97332.38;4774972;30;20043;-92
2024/02/23 09:43:55;;;;;;;9.02;4.00;;;;;;;13.83;91.85;97397.13;4792816;30;20536;-95
2024/02/23 09:46:36;;;;;;;9.73;4.88;;;;;;;13.68;93.68;97398.94;4823035;29;20106;-95
2024/02/23 09:49:06;;;;;;;14.75;4.30;;;;;;;13.79;92.17;97373.38;4865862;29;20038;-96
2024/02/23 09:51:43;;;;;;;10.27;3.50;;;;;;;13.94;90.93;97393.81;4879793;29;20038;-94
2024/02/23 09:54:12;;;;;;;9.20;4.40;;;;;;;13.99;90.00;97365.00;4881603;29;20045;-94
2024/02/23 09:56:42;;;;;;;14.68;5.28;;;;;;;13.72;90.36;97331.03;4882858;29;20088;-94
2024/02/23 09:59:28;;;;;;;11.32;4.05;;;;;;;13.74;89.39;97322.91;4876967;29;20046;-93
2024/02/23 10:08:21;;;;;;;14.00;4.43;;;;;;;14.06;87.99;97368.13;4868240;29;20478;-95
2024/02/23 10:11:03;;;;;;;13.93;4.43;;;;;;;13.61;87.28;97285.44;4860079;29;20117;-96
2024/02/23 10:14:09;;;;;;;14.18;3.85;;;;;;;13.68;87.42;97296.59;4865652;29;20045;-96
2024/02/23 10:16:47;;;;;;;11.82;4.32;;;;;;;14.01;88.25;97340.81;4868653;29;20048;-94
2024/02/23 10:19:19;;;;;;;12.55;5.07;;;;;;;14.08;88.22;97324.31;4882506;29;20064;-94
2024/02/23 10:22:20;;;;;;;15.05;4.80;;;;;;;14.18;87.39;97320.09;4868621;29;20053;-95
2024/02/23 10:24:53;;;;;;;10.68;4.97;;;;;;;14.04;87.15;97272.00;4871386;29;20045;-94
2024/02/23 10:27:48;;;;;;;8.48;4.22;;;;;;;14.05;84.93;97255.03;4871241;29;20052;-96
2024/02/23 10:30:21;;;;;;;11.73;4.63;;;;;;;14.58;84.12;97292.56;4867612;29;20076;-96
2024/02/23 10:32:49;;;;;;;16.15;4.10;;;;;;;14.54;84.44;97297.22;4872375;29;20045;-96
2024/02/23 10:35:40;;;;;;;11.10;4.68;;;;;;;14.24;84.66;97243.94;4872340;29;20041;-95
2024/02/23 10:38:23;;;;;;;11.35;4.40;;;;;;;14.06;86.48;97243.34;4872481;29;20038;-95
2024/02/23 10:41:17;;;;;;;9.05;3.65;;;;;;;14.31;86.54;97279.16;4860435;29;20079;-96
2024/02/23 10:44:05;;;;;;;;;;;;;;;14.45;86.65;97302.34;4872848;29;20053;-95
2024/02/23 10:46:42;;;;;;;11.65;4.50;;;;;;;14.28;86.85;97274.88;4861746;29;19939;-95
2024/02/23 10:49:09;;;;;;;11.88;4.65;;;;;;;14.11;86.64;97296.50;4864906;29;20120;-95
2024/02/23 10:51:48;;;;;;;21.08;5.70;;;;;;;14.38;87.29;97315.25;4875100;29;20132;-96
2024/02/23 10:57:21;;;;;;;12.13;4.35;;;;;;;14.38;87.32;97299.22;4860810;29;20064;-95
2024/02/23 11:00:26;;;;;;;12.13;4.70;;;;;;;14.09;85.83;97219.09;4918385;23;20053;-96
2024/02/23 11:03:03;;;;;;;9.20;4.18;;;;;;;14.44;84.11;97207.84;4878913;29;20049;-96
2024/02/23 11:06:21;;;;;;;14.80;4.63;;;;;;;14.66;83.01;97209.09;4887692;29;20052;-96
2024/02/23 11:09:17;;;;;;;16.17;4.28;;;;;;;14.78;81.76;97205.59;4829415;29;20074;-94
2024/02/23 11:12:06;;;;;;;8.32;3.58;;;;;;;14.59;83.21;97208.66;4816474;29;20054;-96
2024/02/23 11:14:47;;;;;;;10.10;3.53;;;;;;;15.03;83.32;97257.41;4815015;29;20055;-95
2024/02/23 11:17:38;;;;;;;18.17;4.63;;;;;;;14.96;83.21;97256.97;4812239;29;20061;-95
2024/02/23 11:20:17;;;;;;;15.95;4.63;;;;;;;14.78;81.81;97182.34;4797845;29;20054;-92
2024/02/23 11:23:20;;;;;;;11.05;3.80;;;;;;;15.24;80.31;97221.09;4817989;29;20047;-94
2024/02/23 11:26:13;;;;;;;12.13;4.07;;;;;;;15.49;78.11;97244.31;4812654;29;20054;-96
2024/02/23 11:28:54;;;;;;;10.93;4.00;;;;;;;15.78;77.87;97257.47;4830840;29;20114;-96
2024/02/23 11:31:38;;;;;;;10.25;3.83;;;;;;;15.08;79.96;97172.28;4854150;29;20041;-95
2024/02/23 11:34:24;;;;;;;14.60;4.65;;;;;;;15.22;79.64;97185.53;4890239;29;20056;-95
2024/02/23 11:37:19;;;;;;;12.90;4.88;;;;;;;15.74;79.15;97239.91;4876809;29;20045;-95
2024/02/23 11:39:50;;;;;;;10.25;3.65;;;;;;;15.54;78.86;97171.66;4885158;29;20045;-94
2024/02/23 11:42:26;;;;;;;10.55;4.55;;;;;;;15.74;78.02;97240.78;4889739;29;20140;-93
2024/02/23 11:44:55;;;;;;;17.30;4.22;;;;;;;15.72;77.41;97221.28;4887198;29;20509;-91
2024/02/23 11:47:26;;;;;;;13.45;4.40;;;;;;;15.69;77.10;97154.44;4886811;29;20044;-96
2024/02/23 11:49:57;;;;;;;8.77;4.15;;;;;;;15.55;78.57;97192.13;4890020;29;20041;-95
2024/02/23 11:52:30;;;;;;;13.07;4.00;;;;;;;15.42;79.64;97181.44;4883781;29;20129;-95
2024/02/23 11:55:22;;;;;;;13.60;4.40;;;;;;;15.19;78.96;97133.06;4887235;29;20060;-94
2024/02/23 11:57:51;;;;;;;11.18;4.30;;;;;;;15.44;79.96;97182.19;4881354;29;20056;-94
2024/02/23 12:04:00;;;;;;;12.23;4.80;;;;;;;15.80;78.15;97180.50;4872131;29;20045;-94
2024/02/23 12:06:35;;;;;;;14.90;4.07;;;;;;;15.49;79.84;97172.00;4876990;29;20121;-93
2024/02/23 12:09:11;;;;;;;9.95;4.13;;;;;;;15.44;79.14;97133.09;4886648;29;20449;-93
2024/02/23 12:11:41;;;;;;;12.75;4.65;;;;;;;15.78;79.43;97164.53;4870310;29;20048;-95
2024/02/23 12:14:25;;;;;;;12.25;4.60;;;;;;;15.74;78.53;97184.50;4884284;29;20049;-96
2024/02/23 12:16:57;;;;;;;12.07;4.18;;;;;;;15.12;79.30;97112.22;4885212;29;20044;-95
2024/02/23 12:19:45;;;;;;;10.35;3.42;;;;;;;15.28;79.20;97130.69;4890006;29;20064;-94
2024/02/23 12:22:12;;;;;;;10.10;3.65;;;;;;;15.06;81.35;97118.00;4882685;29;20041;-96
2024/02/23 12:25:15;;;;;;;9.27;3.90;;;;;;;15.17;82.96;97152.88;4898640;29;20128;-94
2024/02/23 12:31:06;;;;;;;14.15;4.82;;;;;;;14.37;86.75;97078.19;4867639;29;20093;-94
2024/02/23 12:33:34;;;;;;;14.18;4.07;;;;;;;14.75;86.94;97150.47;4892558;29;20074;-93
2024/02/23 12:36:10;;;;;;;12.30;3.42;;;;;;;14.20;86.64;97057.13;4896380;29;20049;-94
2024/02/23 12:38:42;;;;;;;10.30;3.92;;;;;;;14.28;89.77;97041.41;4906307;29;20056;-91
2024/02/23 12:41:56;;;;;;;17.00;4.50;;;;;;;14.11;92.32;97058.59;4900711;29;20033;-95
2024/02/23 12:44:26;;;;;;;17.55;4.93;;;;;;;14.37;99.64;97104.94;4989404;23;20074;-95
2024/02/23 12:47:04;;;;;;;17.23;5.05;;;;;;;14.02;100.00;97094.00;4871530;29;20067;-93
2024/02/23 12:49:40;;;;;;;10.77;4.13;;;;;;;14.11;100.00;97112.91;4889951;29;20041;-96
2024/02/23 12:52:18;;;;;;;14.02;4.80;;;;;;;13.85;100.00;97098.66;4882641;29;20045;-95
2024/02/23 12:54:46;;;;;;;14.27;5.18;;;;;;;13.53;100.00;97069.63;4877798;29;20083;-93
2024/02/23 12:57:24;;;;;;;13.20;4.75;;;;;;;13.73;100.00;97100.34;4880937;29;20045;-95
2024/02/23 13:00:05;;;;;;;16.70;5.82;;;;;;;13.80;100.00;97097.25;4883675;29;20140;-94
2024/02/23 13:02:31;;;;;;;23.63;5.57;;;;;;;13.48;100.00;97046.81;4876115;29;20053;-93
2024/02/23 13:05:08;;;;;;;11.48;5.40;;;;;;;13.79;100.00;97090.19;4890265;29;20105;-92
2024/02/23 13:10:49;;;;;;;16.38;6.53;;;;;;;13.51;100.00;97018.13;4981676;23;20053;-96
2024/02/23 13:13:40;;;;;;;16.45;6.18;;;;;;;13.96;100.00;97092.56;4893130;29;20049;-93
2024/02/23 13:20:12;;;;;;;12.85;6.18;;;;;;;13.73;100.00;97009.50;4878773;29;20039;-96
2024/02/23 13:22:42;;;;;;;16.80;6.30;;;;;;;14.18;100.00;97063.44;4830552;29;20111;-96